Charter Quote
Worldwide +1-877-727-2538 Call
Select Language Lang
SAFETY RELIABILITY EXPERIENCE

Private Jet Charter Services - Yiwu Airport (ZSYW)

Paramount Business Jets offers private jet charter flights and luxury airliner charters to and from Yiwu Airport.

AIRPORT INFORMATION
ICAOZSYW
LOCATIONYiwu, China
FACILITY TYPEAIRPORT

At Paramount Business Jets you can hire chartered private jets to and from Yiwu Airport with as little as 4 hours of notice. All flights booked via Paramount Business Jets are operated by certified direct air carriers that meet and exceed the FAA part 135 and 121 protocol or a foreign equivalent safety authority. Furthermore, Paramount Business Jets subscribes to ARGUS for their third party safety checks of operators, aircraft, and crews prior each and every flight to and from Yiwu Airport and worldwide.

  • Quote a trip using Yiwu Airport or call us 24/7 - 365 days a year at +1-877-727-2538.
Questions? Call +1-877-727-2538

METAR Weather Data at Yiwu Airport, ZSYW

STATIONZSYW
OBSERVEDFri Jul 8, 01:00 UTC
NOWMon Jul 22, 10:12 UTC
AGE26625:12 hr ago
WINDN at 4 mph
VISIBILITY16 miles
CLOUDSmostly cloudy
TEMP84°F (29°C)
DEWPT77°F (25°C)
HUMIDITY79%
HEAT INDEX94°F (34°C)
BAROMETER1007 hPa (29.74 in Hg)
METARZSYW 080100Z 01002MPS 360V060 9999 FEW023 BKN060 29/25 Q1007 NOSIG

Call us on +1-877-727-2538 (24 Hours) to Hire a Private Jet or Get a Quick Quote.

Find Airports Near any Location

Processing
...